Flight Track Log - Related Links

Times and Time Zones

All times are in EDT time to prevent confusion due to time zone crossing. See the DAL268 flight status page for this flight to view local times or setup timezone preferences in your user account.


Time Position Orientation Groundspeed Altitude Reporting Facility
EDT Latitude Longitude Course Direction KTS MPH feet Rate Location/Type
Sat 02:53:11 PM 37.6250 -122.3680 28° Northeast 165 190 200  Level FlightAware ADS-B
Sat 02:53:19 PM 37.6312 -122.3640 27° Northeast 164 189 700 3,500 Climbing FlightAware ADS-B
Sat 02:53:23 PM 37.6335 -122.3620 35° Northeast 165 190 900 2,250 Climbing FlightAware ADS-B
Sat 02:53:35 PM 37.6401 -122.3530 47° Northeast 171 197 1,300 1,556 Climbing FlightAware ADS-B
Sat 02:53:50 PM 37.6494 -122.3410 46° Northeast 194 223 1,600 1,273 Climbing FlightAware ADS-B
Sat 02:54:08 PM 37.6617 -122.3260 44° Northeast 214 246 2,000 1,765 Climbing FlightAware ADS-B
Sat 02:54:24 PM 37.6737 -122.3120 43° Northeast 235 270 2,600 2,323 Climbing FlightAware ADS-B
Sat 02:54:39 PM 37.6864 -122.2960 45° Northeast 245 282 3,200 2,129 Climbing FlightAware ADS-B
Sat 02:54:55 PM 37.6995 -122.2800 44° Northeast 262 302 3,700 2,229 Climbing FlightAware ADS-B
Sat 02:55:14 PM 37.7161 -122.2600 44° Northeast 268 308 4,500 3,000 Climbing FlightAware ADS-B
Sat 02:55:37 PM 37.7375 -122.2340 44° Northeast 271 312 5,800 2,933 Climbing FlightAware ADS-B
Sat 02:55:59 PM 37.7583 -122.2090 44° Northeast 275 316 6,700 2,615 Climbing FlightAware ADS-B
Sat 02:56:16 PM 37.7737 -122.1900 44° Northeast 284 327 7,500 3,000 Climbing FlightAware ADS-B
Sat 02:56:25 PM 37.7827 -122.1790 44° Northeast 287 330 8,000 2,769 Climbing FlightAware ADS-B
Sat 02:56:29 PM 37.7860 -122.1730 55° Northeast 288 331 8,100 2,286 Climbing FlightAware ADS-B
Sat 02:56:46 PM 37.7963 -122.1490 61° Northeast 291 335 8,800 2,743 Climbing FlightAware ADS-B
Sat 02:57:04 PM 37.8051 -122.1200 69° East 294 338 9,700 2,545 Climbing FlightAware ADS-B
Sat 02:57:19 PM 37.8119 -122.0960 70° East 304 350 10,200 1,467 Climbing FlightAware ADS-B
Sat 02:57:49 PM 37.8260 -122.0410 72° East 338 389 10,800 1,300 Climbing FlightAware ADS-B
Sat 02:58:19 PM 37.8407 -121.9830 72° East 363 418 11,500 1,429 Climbing FlightAware ADS-B
Sat 02:58:52 PM 37.8579 -121.9140 72° East 385 443 12,300 1,688 Climbing FlightAware ADS-B
Sat 02:59:23 PM 37.8735 -121.8460 74° East 399 459 13,300 2,066 Climbing FlightAware ADS-B
Sat 02:59:53 PM 37.8894 -121.7780 73° East 406 467 14,400 2,200 Climbing FlightAware ADS-B
Sat 03:00:23 PM 37.9060 -121.7080 73° East 414 476 15,500 2,000 Climbing FlightAware ADS-B
Sat 03:00:53 PM 37.9233 -121.6370 73° East 425 489 16,400 1,869 Climbing FlightAware ADS-B
Sat 03:01:24 PM 37.9409 -121.5650 73° East 431 496 17,400 1,967 Climbing FlightAware ADS-B
Sat 03:01:54 PM 37.9587 -121.4910 73° East 437 503 18,400 1,938 Climbing FlightAware ADS-B
Sat 03:02:29 PM 37.9795 -121.4050 73° East 441 507 19,500 1,568 Climbing FlightAware ADS-B
Sat 03:03:22 PM 38.0030 -121.3050 73° East 450 518 20,700 1,742 Climbing FlightAware ADS-B
Sat 03:04:02 PM 38.0350 -121.1710 73° East 458 527 22,200 2,055 Climbing FlightAware ADS-B
Sat 03:04:35 PM 38.0550 -121.0870 73° East 463 533 23,200 1,701 Climbing FlightAware ADS-B
Sat 03:05:09 PM 38.0760 -120.9990 73° East 468 539 24,100 1,543 Climbing FlightAware ADS-B
Sat 03:05:45 PM 38.0990 -120.9030 73° East 477 549 25,000 1,459 Climbing FlightAware ADS-B
Sat 03:06:23 PM 38.1240 -120.7990 73° East 484 557 25,900 1,455 Climbing FlightAware ADS-B
Sat 03:06:51 PM 38.1420 -120.7250 73° East 488 562 26,600 1,385 Climbing FlightAware ADS-B
Sat 03:07:28 PM 38.1670 -120.6220 73° East 495 570 27,400 1,263 Climbing FlightAware ADS-B
Sat 03:08:07 PM 38.1930 -120.5120 73° East 500 575 28,200 1,360 Climbing FlightAware ADS-B
Sat 03:08:43 PM 38.2130 -120.4130 76° East 497 572 29,100 1,652 Climbing FlightAware ADS-B
Sat 03:09:16 PM 38.2290 -120.3190 78° East 492 566 30,100 1,588 Climbing FlightAware ADS-B
Sat 03:09:51 PM 38.2450 -120.2190 78° East 492 566 30,900 1,333 Climbing FlightAware ADS-B
Sat 03:10:28 PM 38.2630 -120.1170 77° East 492 566 31,700 1,457 Climbing FlightAware ADS-B
Sat 03:11:01 PM 38.2790 -120.0230 78° East 489 563 32,600 1,040 Climbing FlightAware ADS-B
Sat 03:11:43 PM 38.2980 -119.9160 77° East 490 564 33,000 304 Climbing FlightAware ADS-B
Sat 03:12:20 PM 38.3180 -119.7970 78° East 494 568 33,000  Level FlightAware ADS-B
Sat 03:12:54 PM 38.3350 -119.7010 77° East 497 572 33,000  Level FlightAware ADS-B
Sat 03:13:28 PM 38.3520 -119.6040 77° East 498 573 33,000  Level FlightAware ADS-B
Sat 03:14:04 PM 38.3690 -119.4990 78° East 499 574 33,000  Level FlightAware ADS-B
Sat 03:14:36 PM 38.3850 -119.4090 77° East 498 573 33,000  Level FlightAware ADS-B
Sat 03:15:13 PM 38.4020 -119.3050 78° East 498 573 33,000  Level FlightAware ADS-B
Sat 03:15:44 PM 38.4180 -119.2120 78° East 497 572 33,000 90 Level FlightAware ADS-B
Sat 03:16:20 PM 38.4340 -119.1120 78° East 496 571 33,100 973 Climbing FlightAware ADS-B
Sat 03:16:58 PM 38.4520 -119.0030 78° East 486 559 34,200 1,378 Climbing FlightAware ADS-B
Sat 03:17:34 PM 38.4680 -118.9020 79° East 490 564 34,800 1,000 Climbing FlightAware ADS-B
Sat 03:18:10 PM 38.4830 -118.8040 79° East 491 565 35,400 833 Climbing FlightAware ADS-B
Sat 03:18:46 PM 38.5000 -118.6990 78° East 495 570 35,800 794 Climbing FlightAware ADS-B
Sat 03:19:18 PM 38.5150 -118.6060 78° East 495 570 36,300 909 Climbing FlightAware ADS-B
Sat 03:19:52 PM 38.5300 -118.5070 79° East 495 570 36,800 900 Climbing FlightAware ADS-B
Sat 03:19:58 PM 38.5330 -118.4910 77° East 494 568 36,900 171 Climbing FlightAware ADS-B
Sat 03:21:02 PM 38.5610 -118.3090 79° East 494 568 37,000 63 Climbing FlightAware ADS-B
Sat 03:21:34 PM 38.5750 -118.2160 79° East 495 570 37,000  Level FlightAware ADS-B
Sat 03:22:10 PM 38.5910 -118.1140 79° East 495 570 37,000  Level FlightAware ADS-B
Sat 03:22:38 PM 38.6030 -118.0330 79° East 494 568 37,000  Level FlightAware ADS-B
Sat 03:23:31 PM 38.6190 -117.9300 79° East 495 570 37,000  Level FlightAware ADS-B
Sat 03:24:07 PM 38.6320 -117.8420 79° East 495 570 37,000  Level FlightAware ADS-B
Sat 03:24:43 PM 38.6450 -117.7540 79° East 495 570 37,000  Level FlightAware ADS-B
Sat 03:25:19 PM 38.6590 -117.6650 79° East 495 570 37,000  Level FlightAware ADS-B
Sat 03:25:55 PM 38.6720 -117.5770 79° East 495 570 37,000  Level FlightAware ADS-B
Sat 03:26:31 PM 38.6850 -117.4890 79° East 495 570 37,000  Level FlightAware ADS-B
Sat 03:27:09 PM 38.6990 -117.3960 79° East 495 570 37,000  Level FlightAware ADS-B
Sat 03:27:46 PM 38.7130 -117.3060 79° East 495 570 37,000  Level FlightAware ADS-B
Sat 03:28:23 PM 38.7270 -117.2150 79° East 495 570 37,000  Level FlightAware ADS-B
Sat 03:29:00 PM 38.7410 -117.1240 79° East 495 570 37,000  Level FlightAware ADS-B
Sat 03:29:36 PM 38.7540 -117.0360 79° East 495 570 37,000  Level FlightAware ADS-B
Sat 03:30:12 PM 38.7670 -116.9480 79° East 495 570 37,000  Level FlightAware ADS-B
Sat 03:30:46 PM 38.7800 -116.8650 79° East 495 570 37,000  Level FlightAware ADS-B
Sat 03:31:20 PM 38.7930 -116.7810 79° East 495 570 37,000  Level FlightAware ADS-B
Sat 03:31:58 PM 38.8070 -116.6880 79° East 495 570 37,000  Level FlightAware ADS-B
Sat 03:32:34 PM 38.8200 -116.6000 79° East 495 570 37,000  Level FlightAware ADS-B
Sat 03:33:12 PM 38.8597 -116.2347 79° East 491 565 37,000  Level Oakland Center
Sat 03:34:13 PM 38.8822 -116.0708 80° East 489 563 37,000  Level Oakland Center
Sat 03:35:36 PM 38.9142 -115.8258 80° East 488 562 37,000  Level Salt Lake Center
Sat 03:36:39 PM 38.9375 -115.6517 80° East 493 567 37,000  Level Salt Lake Center
Sat 03:37:41 PM 38.9594 -115.4775 81° East 494 568 37,000  Level Salt Lake Center
Sat 03:38:43 PM 38.9856 -115.2789 80° East 495 570 37,000  Level Salt Lake Center
Sat 03:39:45 PM 39.0081 -115.1025 81° East 498 573 37,000  Level Salt Lake Center
Sat 03:40:47 PM 39.0294 -114.9281 81° East 496 571 37,000  Level Salt Lake Center
Sat 03:46:54 PM 39.1600 -113.8260 81° East 505 581 37,000  Level FlightAware ADS-B
Sat 03:47:37 PM 39.1740 -113.7140 81° East 506 582 37,000  Level FlightAware ADS-B
Sat 03:48:13 PM 39.1850 -113.6230 81° East 506 582 37,000  Level FlightAware ADS-B
Sat 03:48:45 PM 39.1980 -113.4910 83° East 508 585 37,000  Level FlightAware ADS-B
Sat 03:49:20 PM 39.2080 -113.4050 81° East 508 585 37,000  Level FlightAware ADS-B
Sat 03:49:57 PM 39.2200 -113.3100 81° East 508 585 37,000  Level FlightAware ADS-B
Sat 03:50:33 PM 39.2310 -113.2190 81° East 508 585 37,000  Level FlightAware ADS-B
Sat 03:51:09 PM 39.2420 -113.1270 81° East 508 585 37,000  Level FlightAware ADS-B
Sat 03:51:45 PM 39.2530 -113.0350 81° East 508 585 37,000  Level FlightAware ADS-B
Sat 03:51:59 PM 39.2604 -112.9100 86° East 508 585 37,000  Level FlightAware ADS-B
Sat 03:52:30 PM 39.2701 -112.8170 82° East 508 585 37,000  Level FlightAware ADS-B
Sat 03:53:00 PM 39.2795 -112.7270 82° East 508 585 37,000  Level FlightAware ADS-B
Sat 03:53:33 PM 39.2898 -112.6270 82° East 509 586 37,000  Level FlightAware ADS-B
Sat 03:53:59 PM 39.2989 -112.5500 81° East 512 589 37,000  Level FlightAware ADS-B
Sat 03:54:14 PM 39.3086 -112.5040 75° East 518 596 37,000  Level FlightAware ADS-B
Sat 03:54:20 PM 39.3134 -112.4870 70° East 521 600 37,000  Level FlightAware ADS-B
Sat 03:54:50 PM 39.3417 -112.4000 67° East 526 605 37,000  Level FlightAware ADS-B
Sat 03:55:21 PM 39.3724 -112.3140 65° Northeast 527 606 37,000  Level FlightAware ADS-B
Sat 03:55:51 PM 39.4036 -112.2280 65° Northeast 527 606 37,000  Level FlightAware ADS-B
Sat 03:56:21 PM 39.4352 -112.1420 65° Northeast 529 609 37,000  Level FlightAware ADS-B
Sat 03:57:02 PM 39.4779 -112.0260 64° Northeast 529 609 37,000  Level FlightAware ADS-B
Sat 03:57:32 PM 39.5100 -111.9390 64° Northeast 530 610 37,000  Level FlightAware ADS-B
Sat 03:58:04 PM 39.5434 -111.8470 65° Northeast 528 608 37,000  Level FlightAware ADS-B
Sat 03:58:42 PM 39.5827 -111.7390 65° Northeast 528 608 37,000  Level FlightAware ADS-B
Sat 03:59:12 PM 39.6137 -111.6530 65° Northeast 527 606 37,000  Level FlightAware ADS-B
Sat 03:59:42 PM 39.6446 -111.5670 65° Northeast 528 608 37,000  Level FlightAware ADS-B
Sat 04:00:18 PM 39.6811 -111.4650 65° Northeast 529 609 37,000  Level FlightAware ADS-B
Sat 04:00:50 PM 39.7141 -111.3730 65° Northeast 530 610 37,000  Level FlightAware ADS-B
Sat 04:01:20 PM 39.7447 -111.2870 65° Northeast 530 610 37,000  Level FlightAware ADS-B
Sat 04:01:51 PM 39.7763 -111.1980 65° Northeast 531 611 37,000  Level FlightAware ADS-B
Sat 04:02:21 PM 39.8077 -111.1100 65° Northeast 532 612 37,000  Level FlightAware ADS-B
Sat 04:02:53 PM 39.8399 -111.0180 65° Northeast 532 612 37,000  Level FlightAware ADS-B
Sat 04:03:24 PM 39.8715 -110.9280 65° Northeast 531 611 37,000  Level FlightAware ADS-B
Sat 04:04:05 PM 39.9137 -110.8080 65° Northeast 529 609 37,000  Level FlightAware ADS-B
Sat 04:04:36 PM 39.9445 -110.7200 65° Northeast 530 610 37,000  Level FlightAware ADS-B
Sat 04:05:32 PM 40.0010 -110.5580 65° Northeast 530 610 37,000  Level FlightAware ADS-B
Sat 04:06:14 PM 40.0430 -110.4360 66° East 531 611 37,000  Level FlightAware ADS-B
Sat 04:06:49 PM 40.0780 -110.3340 66° East 532 612 37,000  Level FlightAware ADS-B
Sat 04:07:25 PM 40.1140 -110.2280 66° East 533 613 37,000  Level FlightAware ADS-B
Sat 04:08:00 PM 40.1440 -110.1350 67° East 533 613 37,000  Level FlightAware ADS-B
Sat 04:08:42 PM 40.1780 -109.9970 72° East 527 606 37,000  Level FlightAware ADS-B
Sat 04:09:16 PM 40.2070 -109.8960 69° East 532 612 37,000  Level FlightAware ADS-B
Sat 04:09:51 PM 40.2460 -109.7930 64° Northeast 534 615 37,000  Level FlightAware ADS-B
Sat 04:10:28 PM 40.2850 -109.6870 64° Northeast 535 616 37,000  Level FlightAware ADS-B
Sat 04:10:58 PM 40.3170 -109.6010 64° Northeast 537 618 37,000  Level FlightAware ADS-B
Sat 04:11:33 PM 40.3540 -109.5000 64° Northeast 538 619 37,000  Level FlightAware ADS-B
Sat 04:12:13 PM 40.3980 -109.3830 64° Northeast 538 619 37,000  Level FlightAware ADS-B
Sat 04:12:48 PM 40.4370 -109.2770 64° Northeast 540 621 37,000  Level FlightAware ADS-B
Sat 04:13:20 PM 40.4680 -109.1930 64° Northeast 540 621 37,000  Level FlightAware ADS-B
Sat 04:13:55 PM 40.5090 -109.0810 64° Northeast 539 620 37,000  Level FlightAware ADS-B
Sat 04:14:41 PM 40.5600 -108.9450 64° Northeast 540 621 37,000  Level FlightAware ADS-B
Sat 04:15:16 PM 40.5950 -108.8490 64° Northeast 539 620 37,000  Level FlightAware ADS-B
Sat 04:15:51 PM 40.6400 -108.7390 62° Northeast 541 623 37,000  Level FlightAware ADS-B
Sat 04:16:26 PM 40.6790 -108.6490 60° Northeast 541 623 37,000  Level FlightAware ADS-B
Sat 04:17:01 PM 40.7260 -108.5400 60° Northeast 541 623 37,000  Level FlightAware ADS-B
Sat 04:17:33 PM 40.7650 -108.4470 61° Northeast 541 623 37,000  Level FlightAware ADS-B
Sat 04:18:08 PM 40.8080 -108.3480 60° Northeast 539 620 37,000  Level FlightAware ADS-B
Sat 04:18:49 PM 40.8570 -108.2300 61° Northeast 537 618 37,000  Level FlightAware ADS-B
Sat 04:19:24 PM 40.8960 -108.1380 61° Northeast 536 617 37,000  Level FlightAware ADS-B
Sat 04:19:59 PM 40.9420 -108.0310 60° Northeast 535 616 37,000  Level FlightAware ADS-B
Sat 04:20:56 PM 40.9980 -107.9010 60° Northeast 535 616 37,000  Level FlightAware ADS-B
Sat 04:21:42 PM 41.0460 -107.7890 60° Northeast 535 616 37,000  Level FlightAware ADS-B
Sat 04:22:19 PM 41.0850 -107.7000 60° Northeast 535 616 37,000  Level FlightAware ADS-B
Sat 04:22:31 PM 41.0980 -107.6710 59° Northeast 535 616 37,000  Level FlightAware ADS-B
Sat 04:23:31 PM 41.1610 -107.5260 60° Northeast 535 616 37,000  Level FlightAware ADS-B
Sat 04:24:07 PM 41.1990 -107.4390 60° Northeast 535 616 37,000  Level FlightAware ADS-B
Sat 04:24:53 PM 41.2470 -107.3270 60° Northeast 535 616 37,000  Level FlightAware ADS-B
Sat 04:25:29 PM 41.2850 -107.2400 60° Northeast 535 616 37,000  Level FlightAware ADS-B
Sat 04:26:05 PM 41.3230 -107.1530 60° Northeast 535 616 37,000  Level FlightAware ADS-B
Sat 04:26:41 PM 41.3600 -107.0650 61° Northeast 535 616 37,000  Level FlightAware ADS-B
Sat 04:27:17 PM 41.3980 -106.9780 60° Northeast 535 616 37,000  Level FlightAware ADS-B
Sat 04:27:53 PM 41.4360 -106.8900 60° Northeast 535 616 37,000  Level FlightAware ADS-B
Sat 04:28:29 PM 41.4740 -106.8030 60° Northeast 535 616 37,000  Level FlightAware ADS-B
Sat 04:29:07 PM 41.5140 -106.7100 60° Northeast 535 616 37,000  Level FlightAware ADS-B
Sat 04:29:41 PM 41.6470 -106.3540 63° Northeast 542 624 37,000  Level FlightAware ADS-B
Sat 04:30:15 PM 41.6900 -106.2500 61° Northeast 544 626 37,000  Level FlightAware ADS-B
Sat 04:30:51 PM 41.7320 -106.1450 62° Northeast 546 628 37,000  Level FlightAware ADS-B
Sat 04:31:27 PM 41.7750 -106.0370 62° Northeast 546 628 37,000  Level FlightAware ADS-B
Sat 04:32:01 PM 41.8140 -105.9390 62° Northeast 547 629 37,000  Level FlightAware ADS-B
Sat 04:32:39 PM 41.8380 -105.8110 76° East 543 625 37,000  Level FlightAware ADS-B
Sat 04:33:20 PM 41.8410 -105.6870 88° East 542 624 37,000  Level FlightAware ADS-B
Sat 04:33:55 PM 41.8260 -105.5640 99° East 535 616 37,000  Level FlightAware ADS-B
Sat 04:34:39 PM 41.8160 -105.4390 96° East 535 616 37,000  Level FlightAware ADS-B
Sat 04:35:16 PM 41.8080 -105.3350 96° East 535 616 37,000  Level FlightAware ADS-B
Sat 04:35:41 PM 41.7947 -105.2130 98° East 534 615 37,000  Level FlightAware ADS-B
Sat 04:36:11 PM 41.7858 -105.1140 97° East 533 613 37,000  Level FlightAware ADS-B
Sat 04:36:41 PM 41.7767 -105.0140 97° East 535 616 37,000  Level FlightAware ADS-B
Sat 04:37:12 PM 41.7675 -104.9150 97° East 534 615 37,000  Level FlightAware ADS-B
Sat 04:37:42 PM 41.7581 -104.8150 97° East 532 612 37,000  Level FlightAware ADS-B
Sat 04:38:12 PM 41.7487 -104.7160 97° East 531 611 37,000  Level FlightAware ADS-B
Sat 04:38:43 PM 41.7407 -104.6180 96° East 531 611 37,000  Level FlightAware ADS-B
Sat 04:39:14 PM 41.7346 -104.5290 95° East 532 612 37,000  Level FlightAware ADS-B
Sat 04:39:44 PM 41.7278 -104.4170 95° East 533 613 37,000  Level FlightAware ADS-B
Sat 04:40:15 PM 41.7210 -104.3170 95° East 532 612 37,000  Level FlightAware ADS-B
Sat 04:40:45 PM 41.7141 -104.2190 95° East 532 612 37,000  Level FlightAware ADS-B
Sat 04:41:15 PM 41.7068 -104.1180 95° East 534 615 37,000  Level FlightAware ADS-B
Sat 04:41:45 PM 41.6995 -104.0200 96° East 535 616 37,000  Level FlightAware ADS-B
Sat 04:42:16 PM 41.6920 -103.9200 96° East 536 617 37,000  Level FlightAware ADS-B
Sat 04:42:46 PM 41.6844 -103.8200 96° East 536 617 37,000  Level FlightAware ADS-B
Sat 04:43:17 PM 41.6767 -103.7200 96° East 536 617 37,000  Level FlightAware ADS-B
Sat 04:43:47 PM 41.6689 -103.6200 96° East 537 618 37,000  Level FlightAware ADS-B
Sat 04:44:19 PM 41.6608 -103.5160 96° East 538 619 37,000  Level FlightAware ADS-B
Sat 04:44:49 PM 41.6529 -103.4160 96° East 539 620 37,000  Level FlightAware ADS-B
Sat 04:45:20 PM 41.6448 -103.3140 96° East 539 620 37,000  Level FlightAware ADS-B
Sat 04:45:38 PM 41.6401 -103.2540 96° East 541 623 37,000  Level FlightAware ADS-B
Sat 04:45:48 PM 41.6386 -103.2200 93° East 543 625 37,000  Level FlightAware ADS-B
Sat 04:46:19 PM 41.6394 -103.1160 89° East 545 627 37,000  Level FlightAware ADS-B
Sat 04:46:49 PM 41.6407 -103.0140 89° East 546 628 37,000  Level FlightAware ADS-B
Sat 04:47:20 PM 41.6418 -102.9100 89° East 546 628 37,000  Level FlightAware ADS-B
Sat 04:47:52 PM 41.6428 -102.8040 89° East 547 629 37,000  Level FlightAware ADS-B
Sat 04:48:25 PM 41.6434 -102.6920 90° East 547 629 37,000  Level FlightAware ADS-B
Sat 04:49:10 PM 41.6440 -102.5410 90° East 548 631 37,000  Level FlightAware ADS-B
Sat 04:49:50 PM 41.6411 -102.4070 92° East 548 631 37,000  Level FlightAware ADS-B
Sat 04:49:53 PM 41.6403 -102.3940 95° East 548 631 37,000  Level FlightAware ADS-B
Sat 04:50:24 PM 41.6332 -102.2910 95° East 548 631 37,000  Level FlightAware ADS-B
Sat 04:50:55 PM 41.6243 -102.1870 96° East 548 631 37,000  Level FlightAware ADS-B
Sat 04:51:27 PM 41.6140 -102.0790 97° East 548 631 37,000  Level FlightAware ADS-B
Sat 04:51:58 PM 41.6038 -101.9770 98° East 548 631 37,000  Level FlightAware ADS-B
Sat 04:52:31 PM 41.5923 -101.8660 98° East 546 628 37,000  Level FlightAware ADS-B
Sat 04:53:02 PM 41.5813 -101.7630 98° East 547 629 37,000  Level FlightAware ADS-B
Sat 04:53:35 PM 41.5692 -101.6520 98° East 546 628 37,000  Level FlightAware ADS-B
Sat 04:54:06 PM 41.5582 -101.5520 98° East 546 628 37,000  Level FlightAware ADS-B
Sat 04:54:50 PM 41.5419 -101.4050 98° East 545 627 37,000  Level FlightAware ADS-B
Sat 04:55:24 PM 41.5290 -101.2900 98° East 544 626 37,000  Level FlightAware ADS-B
Sat 04:56:09 PM 41.5130 -101.1460 98° East 542 624 37,000  Level FlightAware ADS-B
Sat 04:56:48 PM 41.5010 -101.0360 98° East 542 624 37,000  Level FlightAware ADS-B
Sat 04:57:24 PM 41.4900 -100.9350 98° East 542 624 37,000  Level FlightAware ADS-B
Sat 04:58:00 PM 41.4800 -100.8340 97° East 542 624 37,000  Level FlightAware ADS-B
Sat 04:58:36 PM 41.4690 -100.7320 98° East 542 624 37,000  Level FlightAware ADS-B
Sat 04:59:12 PM 41.4580 -100.6310 98° East 542 624 37,000  Level FlightAware ADS-B
Sat 04:59:48 PM 41.4480 -100.5290 97° East 542 624 37,000  Level FlightAware ADS-B
Sat 05:00:18 PM 41.4390 -100.4450 98° East 542 624 37,000  Level FlightAware ADS-B
Sat 05:01:04 PM 41.4250 -100.3150 98° East 542 624 37,000  Level FlightAware ADS-B
Sat 05:01:42 PM 41.4140 -100.2080 98° East 542 624 37,000  Level FlightAware ADS-B
Sat 05:02:19 PM 41.4030 -100.1040 98° East 542 624 37,000  Level FlightAware ADS-B
Sat 05:02:43 PM 41.3960 -100.0370 98° East 542 624 37,000  Level FlightAware ADS-B
Sat 05:03:40 PM 41.3790 -99.8760 98° East 542 624 37,000  Level FlightAware ADS-B
Sat 05:04:17 PM 41.3680 -99.7720 98° East 542 624 37,000  Level FlightAware ADS-B
Sat 05:04:53 PM 41.3570 -99.6710 98° East 542 624 37,000  Level FlightAware ADS-B
Sat 05:05:29 PM 41.3460 -99.5700 98° East 542 624 37,000  Level FlightAware ADS-B
Sat 05:06:05 PM 41.3360 -99.4690 97° East 542 624 37,000  Level FlightAware ADS-B
Sat 05:10:22 PM 41.1630 -98.3750 102° East 533 613 37,000  Level FlightAware ADS-B
Sat 05:10:57 PM 41.1470 -98.2600 100° East 534 615 37,000  Level FlightAware ADS-B
Sat 05:11:35 PM 41.1290 -98.1330 101° East 534 615 37,000  Level FlightAware ADS-B
Sat 05:12:07 PM 41.1150 -98.0330 100° East 534 615 37,000  Level FlightAware ADS-B
Sat 05:12:42 PM 41.0990 -97.9210 101° East 534 615 37,000  Level FlightAware ADS-B
Sat 05:13:17 PM 41.0830 -97.8120 101° East 534 615 37,000  Level FlightAware ADS-B
Sat 05:13:52 PM 41.0670 -97.6980 101° East 535 616 37,000  Level FlightAware ADS-B
Sat 05:14:27 PM 41.0500 -97.5840 101° East 535 616 37,000  Level FlightAware ADS-B
Sat 05:15:07 PM 41.0320 -97.4600 101° East 535 616 37,000  Level FlightAware ADS-B
Sat 05:15:43 PM 41.0150 -97.3410 101° East 536 617 37,000  Level FlightAware ADS-B
Sat 05:16:18 PM 40.9980 -97.2300 101° East 536 617 37,000  Level FlightAware ADS-B
Sat 05:16:53 PM 40.9810 -97.1150 101° East 535 616 37,000  Level FlightAware ADS-B
Sat 05:17:28 PM 40.9640 -97.0020 101° East 536 617 37,000  Level FlightAware ADS-B
Sat 05:18:03 PM 40.9470 -96.8910 101° East 536 617 37,000  Level FlightAware ADS-B
Sat 05:18:38 PM 40.9300 -96.7780 101° East 537 618 37,000  Level FlightAware ADS-B
Sat 05:19:13 PM 40.9160 -96.6640 99° East 536 617 37,000  Level FlightAware ADS-B
Sat 05:19:48 PM 40.9030 -96.5510 99° East 537 618 37,000  Level FlightAware ADS-B
Sat 05:20:22 PM 40.8910 -96.4390 98° East 537 618 37,000  Level FlightAware ADS-B
Sat 05:20:57 PM 40.8790 -96.3250 98° East 537 618 37,000  Level FlightAware ADS-B
Sat 05:21:33 PM 40.8660 -96.2080 98° East 536 617 37,000  Level FlightAware ADS-B
Sat 05:22:08 PM 40.8540 -96.0940 98° East 537 618 37,000  Level FlightAware ADS-B
Sat 05:22:26 PM 40.8480 -96.0380 98° East 537 618 37,000  Level FlightAware ADS-B
Sat 05:23:15 PM 40.8310 -95.8900 99° East 537 618 37,000  Level FlightAware ADS-B
Sat 05:23:51 PM 40.8170 -95.7700 99° East 537 618 37,000  Level FlightAware ADS-B
Sat 05:24:23 PM 40.8050 -95.6670 99° East 537 618 37,000  Level FlightAware ADS-B
Sat 05:25:01 PM 40.7900 -95.5360 99° East 537 618 37,000  Level FlightAware ADS-B
Sat 05:25:36 PM 40.7770 -95.4250 99° East 537 618 37,000  Level FlightAware ADS-B
Sat 05:26:15 PM 40.7620 -95.2970 99° East 538 619 37,000  Level FlightAware ADS-B
Sat 05:26:54 PM 40.7470 -95.1720 99° East 538 619 37,000  Level FlightAware ADS-B
Sat 05:27:31 PM 40.7330 -95.0510 99° East 539 620 37,000  Level FlightAware ADS-B
Sat 05:28:04 PM 40.7200 -94.9450 99° East 539 620 37,000  Level FlightAware ADS-B
Sat 05:28:40 PM 40.7070 -94.8360 99° East 540 621 37,000  Level FlightAware ADS-B
Sat 05:29:15 PM 40.6920 -94.7150 99° East 541 623 37,000  Level FlightAware ADS-B
Sat 05:29:50 PM 40.6780 -94.6010 99° East 541 623 37,000  Level FlightAware ADS-B
Sat 05:30:27 PM 40.6630 -94.4820 99° East 542 624 37,000  Level FlightAware ADS-B
Sat 05:31:01 PM 40.6490 -94.3700 99° East 542 624 37,000  Level FlightAware ADS-B
Sat 05:31:34 PM 40.6350 -94.2640 100° East 542 624 37,000  Level FlightAware ADS-B
Sat 05:32:12 PM 40.6190 -94.1420 100° East 542 624 37,000  Level FlightAware ADS-B
Sat 05:32:46 PM 40.6050 -94.0310 99° East 542 624 37,000  Level FlightAware ADS-B
Sat 05:33:25 PM 40.5920 -93.9230 99° East 542 624 37,000  Level FlightAware ADS-B
Sat 05:34:01 PM 40.5800 -93.8230 99° East 542 624 37,000  Level FlightAware ADS-B
Sat 05:34:38 PM 40.5500 -93.6670 104° East 541 623 37,000  Level FlightAware ADS-B
Sat 05:35:14 PM 40.5310 -93.5510 102° East 539 620 37,000  Level FlightAware ADS-B
Sat 05:35:46 PM 40.5140 -93.4480 102° East 537 618 37,000  Level FlightAware ADS-B
Sat 05:36:22 PM 40.4960 -93.3340 102° East 536 617 37,000  Level FlightAware ADS-B
Sat 05:36:58 PM 40.4780 -93.2230 102° East 534 615 37,000  Level FlightAware ADS-B
Sat 05:37:30 PM 40.4610 -93.1210 102° East 533 613 37,000  Level FlightAware ADS-B
Sat 05:38:09 PM 40.4410 -93.0000 102° East 531 611 37,000  Level FlightAware ADS-B
Sat 05:38:44 PM 40.4230 -92.8870 102° East 531 611 37,000  Level FlightAware ADS-B
Sat 05:39:16 PM 40.4060 -92.7860 102° East 530 610 37,000  Level FlightAware ADS-B
Sat 05:39:52 PM 40.3870 -92.6750 103° East 530 610 37,000  Level FlightAware ADS-B
Sat 05:40:26 PM 40.3690 -92.5650 102° East 530 610 37,000  Level FlightAware ADS-B
Sat 05:41:04 PM 40.3490 -92.4480 103° East 529 609 37,000  Level FlightAware ADS-B
Sat 05:41:50 PM 40.3280 -92.3210 102° East 528 608 37,000  Level FlightAware ADS-B
Sat 05:42:39 PM 40.3060 -92.1900 102° East 528 608 37,000  Level FlightAware ADS-B
Sat 05:43:15 PM 40.2910 -92.0940 102° East 528 608 37,000  Level FlightAware ADS-B
Sat 05:43:51 PM 40.2750 -91.9990 102° East 528 608 37,000  Level FlightAware ADS-B
Sat 05:44:27 PM 40.2600 -91.9030 102° East 528 608 37,000  Level FlightAware ADS-B
Sat 05:45:04 PM 40.2440 -91.8040 102° East 528 608 37,000  Level FlightAware ADS-B
Sat 05:46:00 PM 40.1900 -91.5420 105° East 529 609 37,000  Level FlightAware ADS-B
Sat 05:46:36 PM 40.1670 -91.4130 103° East 529 609 37,000  Level FlightAware ADS-B
Sat 05:47:08 PM 40.1500 -91.3160 103° East 530 610 37,000  Level FlightAware ADS-B
Sat 05:48:03 PM 40.1210 -91.1580 103° East 531 611 37,000  Level FlightAware ADS-B
Sat 05:48:34 PM 40.1010 -91.0470 103° East 531 611 37,000  Level FlightAware ADS-B
Sat 05:49:10 PM 40.0800 -90.9340 104° East 532 612 37,000  Level FlightAware ADS-B
Sat 05:49:38 PM 40.0640 -90.8490 104° East 532 612 37,000  Level FlightAware ADS-B
Sat 05:50:20 PM 40.0390 -90.7150 104° East 533 613 37,000  Level FlightAware ADS-B
Sat 05:50:56 PM 40.0180 -90.6020 104° East 534 615 37,000  Level FlightAware ADS-B
Sat 05:51:29 PM 40.0000 -90.5050 104° East 535 616 37,000  Level FlightAware ADS-B
Sat 05:52:04 PM 39.9780 -90.3940 104° East 535 616 37,000  Level FlightAware ADS-B
Sat 05:52:40 PM 39.9560 -90.2780 104° East 535 616 37,000  Level FlightAware ADS-B
Sat 05:53:16 PM 39.9350 -90.1650 104° East 536 617 37,000  Level FlightAware ADS-B
Sat 05:53:50 PM 39.9150 -90.0620 104° East 536 617 37,000  Level FlightAware ADS-B
Sat 05:54:26 PM 39.8930 -89.9480 104° East 537 618 37,000  Level FlightAware ADS-B
Sat 05:55:06 PM 39.8690 -89.8270 104° East 537 618 37,000  Level FlightAware ADS-B
Sat 05:55:40 PM 39.8490 -89.7170 103° East 537 618 37,000  Level FlightAware ADS-B
Sat 05:56:16 PM 39.8400 -89.5990 96° East 534 615 37,000  Level FlightAware ADS-B
Sat 05:56:58 PM 39.8400 -89.4670 90° East 533 613 37,000  Level FlightAware ADS-B
Sat 05:57:30 PM 39.8410 -89.3630 89° East 533 613 37,000  Level FlightAware ADS-B
Sat 05:58:08 PM 39.8420 -89.2400 89° East 533 613 37,000  Level FlightAware ADS-B
Sat 05:58:50 PM 39.8420 -89.1100 90° East 532 612 37,000  Level FlightAware ADS-B
Sat 05:59:26 PM 39.8420 -88.9930 90° East 531 611 37,000  Level FlightAware ADS-B
Sat 05:59:58 PM 39.8420 -88.8900 90° East 531 611 37,000  Level FlightAware ADS-B
Sat 06:00:52 PM 39.8420 -88.7210 90° East 531 611 37,000  Level FlightAware ADS-B
Sat 06:01:25 PM 39.8420 -88.6200 90° East 532 612 37,000  Level FlightAware ADS-B
Sat 06:02:04 PM 39.8420 -88.4920 90° East 532 612 37,000  Level FlightAware ADS-B
Sat 06:02:35 PM 39.8410 -88.3960 91° East 531 611 37,000  Level FlightAware ADS-B
Sat 06:03:36 PM 39.8400 -88.1960 90° East 531 611 37,000  Level FlightAware ADS-B
Sat 06:04:12 PM 39.8390 -88.0810 91° East 532 612 37,000  Level FlightAware ADS-B
Sat 06:04:46 PM 39.8390 -87.9770 90° East 532 612 37,000  Level FlightAware ADS-B
Sat 06:05:20 PM 39.8380 -87.8640 91° East 533 613 37,000  Level FlightAware ADS-B
Sat 06:05:56 PM 39.8370 -87.7500 91° East 533 613 37,000  Level FlightAware ADS-B
Sat 06:06:32 PM 39.8360 -87.6390 91° East 533 613 37,000  Level FlightAware ADS-B
Sat 06:07:08 PM 39.8340 -87.5180 91° East 533 613 37,000  Level FlightAware ADS-B
Sat 06:07:40 PM 39.8330 -87.4220 91° East 534 615 37,000  Level FlightAware ADS-B
Sat 06:08:16 PM 39.8310 -87.3050 91° East 535 616 37,000  Level FlightAware ADS-B
Sat 06:08:52 PM 39.8290 -87.1860 91° East 535 616 37,000  Level FlightAware ADS-B
Sat 06:09:24 PM 39.8280 -87.0830 91° East 535 616 37,000  Level FlightAware ADS-B
Sat 06:10:00 PM 39.8260 -86.9740 91° East 535 616 37,000  Level FlightAware ADS-B
Sat 06:10:36 PM 39.8240 -86.8550 91° East 535 616 37,000  Level FlightAware ADS-B
Sat 06:10:59 PM 39.8230 -86.7840 91° East 535 616 37,000  Level FlightAware ADS-B
Sat 06:11:40 PM 39.8210 -86.6500 91° East 535 616 37,000  Level FlightAware ADS-B
Sat 06:12:13 PM 39.8190 -86.5420 91° East 536 617 37,000  Level FlightAware ADS-B
Sat 06:12:47 PM 39.8170 -86.4340 91° East 535 616 37,000  Level FlightAware ADS-B
Sat 06:13:21 PM 39.8250 -86.3270 84° East 523 602 37,000  Level FlightAware ADS-B
Sat 06:13:57 PM 39.8460 -86.2210 75° East 516 594 37,000  Level FlightAware ADS-B
Sat 06:14:35 PM 39.8780 -86.1160 68° East 508 585 37,000  Level FlightAware ADS-B
Sat 06:15:07 PM 39.9110 -86.0260 64° Northeast 506 582 37,000  Level FlightAware ADS-B
Sat 06:15:43 PM 39.9490 -85.9210 65° Northeast 506 582 37,000  Level FlightAware ADS-B
Sat 06:16:20 PM 39.9860 -85.8210 64° Northeast 505 581 37,000  Level FlightAware ADS-B
Sat 06:16:52 PM 40.0190 -85.7320 64° Northeast 505 581 37,000  Level FlightAware ADS-B
Sat 06:17:28 PM 40.0550 -85.6340 64° Northeast 504 580 37,000  Level FlightAware ADS-B
Sat 06:18:04 PM 40.0920 -85.5340 64° Northeast 505 581 37,000  Level FlightAware ADS-B
Sat 06:18:41 PM 40.1260 -85.4410 64° Northeast 505 581 37,000  Level FlightAware ADS-B
Sat 06:19:13 PM 40.1590 -85.3520 64° Northeast 505 581 37,000  Level FlightAware ADS-B
Sat 06:19:47 PM 40.1960 -85.2520 64° Northeast 506 582 37,000  Level FlightAware ADS-B
Sat 06:20:20 PM 40.2270 -85.1650 65° Northeast 506 582 37,000  Level FlightAware ADS-B
Sat 06:20:55 PM 40.2650 -85.0630 64° Northeast 507 583 37,000  Level FlightAware ADS-B
Sat 06:21:31 PM 40.2990 -84.9660 65° Northeast 508 585 37,000  Level FlightAware ADS-B
Sat 06:22:03 PM 40.3320 -84.8750 65° Northeast 508 585 37,000  Level FlightAware ADS-B
Sat 06:22:35 PM 40.3650 -84.7850 64° Northeast 508 585 37,000  Level FlightAware ADS-B
Sat 06:23:31 PM 40.4200 -84.6300 65° Northeast 509 586 37,000  Level FlightAware ADS-B
Sat 06:24:01 PM 40.4500 -84.5450 65° Northeast 509 586 37,000  Level FlightAware ADS-B
Sat 06:24:36 PM 40.4850 -84.4480 65° Northeast 509 586 37,000  Level FlightAware ADS-B
Sat 06:25:10 PM 40.5180 -84.3530 65° Northeast 506 582 37,000  Level FlightAware ADS-B
Sat 06:25:51 PM 40.5570 -84.2440 65° Northeast 506 582 37,000  Level FlightAware ADS-B
Sat 06:26:24 PM 40.5890 -84.1520 65° Northeast 506 582 37,000  Level FlightAware ADS-B
Sat 06:26:52 PM 40.6180 -84.0680 66° East 507 583 37,000  Level FlightAware ADS-B
Sat 06:27:34 PM 40.6570 -83.9550 66° East 508 585 37,000  Level FlightAware ADS-B
Sat 06:28:10 PM 40.6920 -83.8540 65° Northeast 509 586 37,000  Level FlightAware ADS-B
Sat 06:28:42 PM 40.7250 -83.7600 65° Northeast 508 585 37,000  Level FlightAware ADS-B
Sat 06:29:16 PM 40.7550 -83.6690 66° East 508 585 37,000  Level FlightAware ADS-B
Sat 06:29:53 PM 40.7920 -83.5620 65° Northeast 508 585 37,000  Level FlightAware ADS-B
Sat 06:30:26 PM 40.8250 -83.4660 66° East 509 586 37,000  Level FlightAware ADS-B
Sat 06:31:02 PM 40.8590 -83.3640 66° East 508 585 37,000  Level FlightAware ADS-B
Sat 06:31:39 PM 40.8940 -83.2620 66° East 507 583 37,000  Level FlightAware ADS-B
Sat 06:32:16 PM 40.9300 -83.1550 66° East 506 582 37,000  Level FlightAware ADS-B
Sat 06:32:48 PM 40.9600 -83.0640 66° East 505 581 37,000  Level FlightAware ADS-B
Sat 06:33:24 PM 40.9930 -82.9670 66° East 505 581 37,000  Level FlightAware ADS-B
Sat 06:34:00 PM 41.0280 -82.8630 66° East 505 581 37,000  Level FlightAware ADS-B
Sat 06:34:33 PM 41.0590 -82.7700 66° East 506 582 37,000  Level FlightAware ADS-B
Sat 06:35:10 PM 41.0940 -82.6630 67° East 507 583 37,000  Level FlightAware ADS-B
Sat 06:35:40 PM 41.1200 -82.5840 66° East 508 585 37,000  Level FlightAware ADS-B
Sat 06:36:18 PM 41.1570 -82.4710 66° East 508 585 37,000  Level FlightAware ADS-B
Sat 06:36:53 PM 41.1890 -82.3710 67° East 508 585 37,000  Level FlightAware ADS-B
Sat 06:37:28 PM 41.2230 -82.2670 66° East 508 585 37,000  Level FlightAware ADS-B
Sat 06:38:02 PM 41.2520 -82.1670 69° East 517 595 37,000  Level FlightAware ADS-B
Sat 06:38:39 PM 41.2760 -82.0570 74° East 526 605 37,000  Level FlightAware ADS-B
Sat 06:39:15 PM 41.2940 -81.9450 78° East 528 608 37,000  Level FlightAware ADS-B
Sat 06:39:50 PM 41.3080 -81.8620 77° East 528 608 37,000 369 Level FlightAware ADS-B
Sat 06:40:20 PM 41.3200 -81.7900 77° East 528 608 37,400 896 Climbing FlightAware ADS-B
Sat 06:40:57 PM 41.3390 -81.6700 78° East 526 605 38,000 486 Climbing FlightAware ADS-B
Sat 06:41:34 PM 41.3650 -81.5060 78° East 526 605 38,000  Level FlightAware ADS-B
Sat 06:42:08 PM 41.3810 -81.3980 79° East 529 609 38,000  Level FlightAware ADS-B
Sat 06:42:26 PM 41.3900 -81.3410 78° East 530 610 38,000  Level FlightAware ADS-B
Sat 06:43:24 PM 41.4190 -81.1510 78° East 533 613 38,000  Level FlightAware ADS-B
Sat 06:43:57 PM 41.4340 -81.0440 79° East 535 616 38,000  Level FlightAware ADS-B
Sat 06:44:28 PM 41.4480 -80.9500 79° East 537 618 38,000  Level FlightAware ADS-B
Sat 06:45:06 PM 41.4670 -80.8220 79° East 537 618 38,000  Level FlightAware ADS-B
Sat 06:45:43 PM 41.4850 -80.7020 79° East 538 619 38,000  Level FlightAware ADS-B
Sat 06:46:19 PM 41.5020 -80.5840 79° East 538 619 38,000  Level FlightAware ADS-B
Sat 06:46:50 PM 41.5170 -80.4810 79° East 539 620 38,000  Level FlightAware ADS-B
Sat 06:47:26 PM 41.5330 -80.3630 80° East 539 620 38,000  Level FlightAware ADS-B
Sat 06:48:03 PM 41.5500 -80.2480 79° East 539 620 38,000  Level FlightAware ADS-B
Sat 06:48:36 PM 41.5650 -80.1380 80° East 538 619 38,000  Level FlightAware ADS-B
Sat 06:49:12 PM 41.5820 -80.0200 79° East 535 616 38,000  Level FlightAware ADS-B
Sat 06:49:48 PM 41.5980 -79.9060 79° East 531 611 38,000  Level FlightAware ADS-B
Sat 06:50:21 PM 41.6120 -79.8010 80° East 528 608 38,000  Level FlightAware ADS-B
Sat 06:50:59 PM 41.6290 -79.6750 80° East 525 604 38,000  Level FlightAware ADS-B
Sat 06:51:30 PM 41.6420 -79.5790 80° East 523 602 38,000  Level FlightAware ADS-B
Sat 06:52:07 PM 41.6580 -79.4650 79° East 521 600 38,000  Level FlightAware ADS-B
Sat 06:52:38 PM 41.6710 -79.3630 80° East 520 598 38,000  Level FlightAware ADS-B
Sat 06:53:16 PM 41.6800 -79.2450 84° East 525 604 38,000 -167 Level FlightAware ADS-B
Sat 06:53:50 PM 41.6840 -79.1330 87° East 527 606 37,800 -818 Descending FlightAware ADS-B
Sat 06:54:22 PM 41.6850 -79.0280 89° East 535 616 37,100 -667 Descending FlightAware ADS-B
Sat 06:55:02 PM 41.6850 -78.8920 90° East 547 629 37,000 -79 Descending FlightAware ADS-B
Sat 06:55:38 PM 41.6860 -78.7700 89° East 548 631 37,000  Level FlightAware ADS-B
Sat 06:56:10 PM 41.6860 -78.6640 90° East 549 632 37,000  Level FlightAware ADS-B
Sat 06:56:44 PM 41.6860 -78.5520 90° East 548 631 37,000  Level FlightAware ADS-B
Sat 06:57:22 PM 41.6860 -78.4200 90° East 544 626 37,000  Level FlightAware ADS-B
Sat 06:57:54 PM 41.6860 -78.3180 90° East 543 625 37,000  Level FlightAware ADS-B
Sat 06:58:31 PM 41.6860 -78.1960 90° East 540 621 37,000  Level FlightAware ADS-B
Sat 06:59:06 PM 41.6860 -78.0900 90° East 539 620 37,000  Level FlightAware ADS-B
Sat 06:59:36 PM 41.6860 -77.9840 90° East 537 618 37,000  Level FlightAware ADS-B
Sat 06:59:56 PM 41.6860 -77.9240 90° East 535 616 37,000  Level FlightAware ADS-B
Sat 07:00:47 PM 41.6850 -77.7490 90° East 531 611 37,000  Level FlightAware ADS-B
Sat 07:01:21 PM 41.6840 -77.6350 91° East 530 610 37,000  Level FlightAware ADS-B
Sat 07:01:56 PM 41.6830 -77.5230 91° East 529 609 37,000  Level FlightAware ADS-B
Sat 07:02:21 PM 41.6820 -77.4460 91° East 529 609 37,000  Level FlightAware ADS-B
Sat 07:03:23 PM 41.6800 -77.2360 91° East 529 609 37,000  Level FlightAware ADS-B
Sat 07:03:59 PM 41.6670 -77.1140 98° East 534 615 37,000  Level FlightAware ADS-B
Sat 07:04:27 PM 41.6460 -77.0260 108° East 537 618 37,000  Level FlightAware ADS-B
Sat 07:04:49 PM 41.6262 -76.9539 110° East 539 620 37,000  Level FlightAware ADS-B
Sat 07:05:20 PM 41.6002 -76.8592 110° East 538 619 37,000  Level FlightAware ADS-B
Sat 07:05:52 PM 41.5724 -76.7587 110° East 537 618 37,000 -92 Level FlightAware ADS-B
Sat 07:06:25 PM 41.5445 -76.6582 110° East 536 617 36,900 -667 Descending FlightAware ADS-B
Sat 07:06:55 PM 41.5185 -76.5645 110° East 537 618 36,300 -885 Descending FlightAware ADS-B
Sat 07:07:26 PM 41.4916 -76.4676 110° East 532 612 36,000 -774 Descending FlightAware ADS-B
Sat 07:07:57 PM 41.4653 -76.3731 110° East 530 610 35,500 -875 Descending FlightAware ADS-B
Sat 07:08:14 PM 41.4537 -76.3216 107° East 524 603 35,300 -766 Descending FlightAware ADS-B
Sat 07:08:44 PM 41.4401 -76.2273 101° East 516 594 34,900 -1,452 Descending FlightAware ADS-B
Sat 07:09:16 PM 41.4271 -76.1285 100° East 516 594 33,800 -2,323 Descending FlightAware ADS-B
Sat 07:09:46 PM 41.4163 -76.0324 98° East 514 592 32,500 -2,557 Descending FlightAware ADS-B
Sat 07:10:17 PM 41.4068 -75.9369 98° East 511 588 31,200 -2,516 Descending FlightAware ADS-B
Sat 07:10:48 PM 41.3979 -75.8396 97° East 506 582 29,900 -2,323 Descending FlightAware ADS-B
Sat 07:11:19 PM 41.3903 -75.7450 96° East 498 573 28,800 -2,032 Descending FlightAware ADS-B
Sat 07:11:50 PM 41.3833 -75.6527 96° East 486 559 27,800 -1,905 Descending FlightAware ADS-B
Sat 07:12:22 PM 41.3758 -75.5585 96° East 483 556 26,800 -2,031 Descending FlightAware ADS-B
Sat 07:12:55 PM 41.3679 -75.4597 96° East 495 570 25,600 -2,143 Descending FlightAware ADS-B
Sat 07:13:04 PM 41.3649 -75.4335 99° East 496 571 25,300 -2,182 Descending FlightAware ADS-B
Sat 07:13:17 PM 41.3579 -75.3941 103° East 495 570 24,800 -1,909 Descending FlightAware ADS-B
Sat 07:13:48 PM 41.3380 -75.3039 106° East 490 564 23,900 -1,565 Descending FlightAware ADS-B
Sat 07:14:03 PM 41.3278 -75.2614 108° East 485 558 23,600 -1,174 Descending FlightAware ADS-B
Sat 07:14:34 PM 41.3009 -75.1786 113° Southeast 468 539 23,000 -1,645 Descending FlightAware ADS-B
Sat 07:15:05 PM 41.2722 -75.0997 116° Southeast 459 528 21,900 -2,250 Descending FlightAware ADS-B
Sat 07:15:38 PM 41.2419 -75.0172 116° Southeast 456 525 20,600 -2,308 Descending FlightAware ADS-B
Sat 07:16:10 PM 41.2125 -74.9373 116° Southeast 449 517 19,400 -1,548 Descending FlightAware ADS-B
Sat 07:16:40 PM 41.1853 -74.8633 116° Southeast 446 513 19,000 -375 Descending FlightAware ADS-B
Sat 07:17:14 PM 41.1548 -74.7803 116° Southeast 445 512 19,000  Level FlightAware ADS-B
Sat 07:17:44 PM 41.1278 -74.7068 116° Southeast 443 510 19,000  Level FlightAware ADS-B
Sat 07:18:15 PM 41.1000 -74.6313 116° Southeast 440 506 19,000  Level FlightAware ADS-B
Sat 07:18:46 PM 41.0722 -74.5564 116° Southeast 445 512 19,000  Level FlightAware ADS-B
Sat 07:19:17 PM 41.0441 -74.4806 116° Southeast 441 507 19,000  Level FlightAware ADS-B
Sat 07:19:49 PM 41.0151 -74.4025 116° Southeast 445 512 19,000  Level FlightAware ADS-B
Sat 07:20:25 PM 40.9825 -74.3153 116° Southeast 437 503 19,000  Level FlightAware ADS-B
Sat 07:20:57 PM 40.9549 -74.2416 116° Southeast 423 487 19,000  Level FlightAware ADS-B
Sat 07:21:27 PM 40.9293 -74.1734 116° Southeast 390 449 19,000  Level FlightAware ADS-B
Sat 07:21:34 PM 40.9237 -74.1593 118° Southeast 385 443 19,000  Level FlightAware ADS-B
Sat 07:21:41 PM 40.9170 -74.1456 123° Southeast 379 436 19,000  Level FlightAware ADS-B
Sat 07:21:49 PM 40.9085 -74.1323 130° Southeast 373 429 19,000  Level FlightAware ADS-B
Sat 07:21:56 PM 40.8994 -74.1213 138° Southeast 368 423 19,000  Level FlightAware ADS-B
Sat 07:22:06 PM 40.8858 -74.1093 146° Southeast 360 414 19,000  Level FlightAware ADS-B
Sat 07:22:16 PM 40.8709 -74.1003 155° Southeast 355 409 19,000  Level FlightAware ADS-B
Sat 07:22:49 PM 40.8196 -74.0751 160° South 357 411 19,000 -281 Level FlightAware ADS-B
Sat 07:23:20 PM 40.7718 -74.0520 160° South 354 407 18,700 -1,048 Descending FlightAware ADS-B
Sat 07:23:52 PM 40.7232 -74.0285 160° South 348 400 17,900 -1,548 Descending FlightAware ADS-B
Sat 07:24:22 PM 40.6779 -74.0068 160° South 345 397 17,100 -1,524 Descending FlightAware ADS-B
Sat 07:24:55 PM 40.6284 -73.9835 160° South 341 392 16,300 -1,463 Descending FlightAware ADS-B
Sat 07:25:03 PM 40.6168 -73.9763 155° Southeast 345 397 16,100 -1,667 Descending FlightAware ADS-B
Sat 07:25:13 PM 40.6037 -73.9642 145° Southeast 348 400 15,800 -1,742 Descending FlightAware ADS-B
Sat 07:25:34 PM 40.5823 -73.9297 129° Southeast 349 402 15,200 -1,500 Descending FlightAware ADS-B
Sat 07:26:05 PM 40.5552 -73.8766 124° Southeast 336 387 14,500 -1,138 Descending FlightAware ADS-B
Sat 07:26:32 PM 40.5306 -73.8340 127° Southeast 306 352 14,100 -909 Descending FlightAware ADS-B
Sat 07:26:38 PM 40.5241 -73.8281 145° Southeast 295 339 14,000 -1,000 Descending FlightAware ADS-B
Sat 07:26:44 PM 40.5171 -73.8237 154° Southeast 286 329 13,900 -923 Descending FlightAware ADS-B
Sat 07:26:51 PM 40.5078 -73.8206 166° South 275 316 13,800 -1,000 Descending FlightAware ADS-B
Sat 07:26:56 PM 40.5016 -73.8197 174° South 269 310 13,700 -1,459 Descending FlightAware ADS-B
Sat 07:27:28 PM 40.4637 -73.8189 179° South 258 297 12,900 -1,355 Descending FlightAware ADS-B
Sat 07:27:58 PM 40.4271 -73.8191 180° South 255 293 12,300 -1,082 Descending FlightAware ADS-B
Sat 07:28:29 PM 40.3922 -73.8198 181° South 244 281 11,800 -1,179 Descending FlightAware ADS-B
Sat 07:28:54 PM 40.3641 -73.8205 181° South 243 280 11,200 -1,500 Descending FlightAware ADS-B
Sat 07:29:25 PM 40.3296 -73.8213 181° South 244 281 10,400 -1,560 Descending FlightAware ADS-B
Sat 07:29:44 PM 40.3076 -73.8218 181° South 247 284 9,900 -1,500 Descending FlightAware ADS-B
Sat 07:29:53 PM 40.2969 -73.8199 172° South 255 293 9,700 -1,286 Descending FlightAware ADS-B
Sat 07:29:58 PM 40.2913 -73.8171 159° South 259 298 9,600 -1,500 Descending FlightAware ADS-B
Sat 07:30:01 PM 40.2881 -73.8149 152° Southeast 260 299 9,500 -750 Descending FlightAware ADS-B
Sat 07:30:06 PM 40.2829 -73.8105 147° Southeast 261 300 9,500 -923 Level FlightAware ADS-B
Sat 07:30:14 PM 40.2749 -73.8030 144° Southeast 262 302 9,300 -1,500 Descending FlightAware ADS-B
Sat 07:30:30 PM 40.2598 -73.7884 144° Southeast 263 303 8,900 -1,235 Descending FlightAware ADS-B
Sat 07:30:48 PM 40.2429 -73.7709 142° Southeast 263 303 8,600 -960 Descending FlightAware ADS-B
Sat 07:30:55 PM 40.2375 -73.7606 124° Southeast 262 302 8,500 -837 Descending FlightAware ADS-B
Sat 07:31:31 PM 40.2422 -73.7098 83° East 247 284 8,000 -667 Descending FlightAware ADS-B
Sat 07:31:40 PM 40.2505 -73.7009 39° Northeast 249 287 8,000  Level FlightAware ADS-B
Sat 07:31:56 PM 40.2654 -73.6885 32° Northeast 251 289 8,000  Level FlightAware ADS-B
Sat 07:32:14 PM 40.2834 -73.6743 31° Northeast 245 282 8,000  Level FlightAware ADS-B
Sat 07:32:29 PM 40.2982 -73.6627 31° Northeast 246 283 8,000  Level FlightAware ADS-B
Sat 07:32:45 PM 40.3134 -73.6506 31° Northeast 245 282 8,000  Level FlightAware ADS-B
Sat 07:33:00 PM 40.3284 -73.6387 31° Northeast 246 283 8,000  Level FlightAware ADS-B
Sat 07:33:28 PM 40.3552 -73.6174 31° Northeast 247 284 8,000  Level FlightAware ADS-B
Sat 07:33:46 PM 40.3725 -73.6036 31° Northeast 247 284 8,000  Level FlightAware ADS-B
Sat 07:34:05 PM 40.3920 -73.5880 31° Northeast 250 288 8,000  Level FlightAware ADS-B
Sat 07:34:25 PM 40.4114 -73.5724 31° Northeast 249 287 8,000  Level FlightAware ADS-B
Sat 07:35:14 PM 40.4596 -73.5338 31° Northeast 246 283 8,000  Level FlightAware ADS-B
Sat 07:35:44 PM 40.4890 -73.5105 31° Northeast 246 283 8,000 -305 Level FlightAware ADS-B
Sat 07:36:13 PM 40.5172 -73.4882 31° Northeast 248 285 7,700 -923 Descending FlightAware ADS-B
Sat 07:36:49 PM 40.5520 -73.4600 32° Northeast 244 281 7,000 -1,179 Descending FlightAware ADS-B
Sat 07:37:09 PM 40.5710 -73.4450 31° Northeast 239 275 6,600 -1,304 Descending FlightAware ADS-B
Sat 07:37:35 PM 40.5970 -73.4260 29° Northeast 233 268 6,000 -1,350 Descending FlightAware ADS-B
Sat 07:37:49 PM 40.6110 -73.4220 12° North 223 257 5,700 -1,412 Descending FlightAware ADS-B
Sat 07:38:09 PM 40.6310 -73.4220 360° North 222 255 5,200 -1,650 Descending FlightAware ADS-B
Sat 07:38:29 PM 40.6520 -73.4210 North 224 258 4,600 -1,286 Descending FlightAware ADS-B
Sat 07:38:51 PM 40.6750 -73.4210 360° North 224 258 4,300 -789 Descending FlightAware ADS-B
Sat 07:39:07 PM 40.6920 -73.4210 360° North 221 254 4,100 -500 Descending FlightAware ADS-B
Sat 07:39:27 PM 40.7110 -73.4200 North 221 254 4,000 -150 Descending FlightAware ADS-B
Sat 07:39:47 PM 40.7290 -73.4270 344° North 210 242 4,000  Level FlightAware ADS-B
Sat 07:39:55 PM 40.7360 -73.4340 323° Northwest 210 242 4,000  Level FlightAware ADS-B
Sat 07:40:15 PM 40.7510 -73.4510 319° Northwest 207 238 4,000 -632 Level FlightAware ADS-B
Sat 07:40:33 PM 40.7630 -73.4660 317° Northwest 206 237 3,600 -1,227 Descending FlightAware ADS-B
Sat 07:40:59 PM 40.7810 -73.4870 319° Northwest 208 239 3,100 -1,043 Descending FlightAware ADS-B
Sat 07:41:19 PM 40.7950 -73.5030 319° Northwest 204 235 2,800 -789 Descending FlightAware ADS-B
Sat 07:41:37 PM 40.8090 -73.5190 319° Northwest 194 223 2,600 -600 Descending FlightAware ADS-B
Sat 07:41:59 PM 40.8220 -73.5380 312° West 184 212 2,400 -563 Descending FlightAware ADS-B
Sat 07:42:09 PM 40.8230 -73.5470 278° West 179 206 2,300 -162 Descending FlightAware ADS-B
Sat 07:42:36 PM 40.8260 -73.5720 279° West 179 206 2,300 -529 Level FlightAware ADS-B
Sat 07:42:43 PM 40.8130 -73.5800 205° Southwest 165 190 2,000 -783 Descending FlightAware ADS-B
Sat 07:42:59 PM 40.8080 -73.5940 245° Southwest 165 190 2,000  Level FlightAware ADS-B
Sat 07:43:24 PM 40.7990 -73.6160 242° Southwest 166 191 2,000  Level FlightAware ADS-B
Sat 07:43:50 PM 40.7900 -73.6380 242° Southwest 168 193 2,000  Level FlightAware ADS-B
Sat 07:43:58 PM 40.7840 -73.6440 217° Southwest 168 193 2,000  Level FlightAware ADS-B
Sat 07:44:20 PM 40.7700 -73.6580 217° Southwest 172 198 2,000  Level FlightAware ADS-B
Sat 07:44:40 PM 40.7560 -73.6690 211° Southwest 174 200 2,000  Level FlightAware ADS-B
Sat 07:45:04 PM 40.7400 -73.6810 210° Southwest 171 197 2,000 -136 Level FlightAware ADS-B
Sat 07:45:24 PM 40.7260 -73.6920 211° Southwest 170 196 1,900 -600 Descending FlightAware ADS-B
Sat 07:45:44 PM 40.7130 -73.7020 210° Southwest 156 180 1,600 -938 Descending FlightAware ADS-B
Sat 07:45:56 PM 40.7060 -73.7080 213° Southwest 145 167 1,400 -750 Descending FlightAware ADS-B
Sat 07:46:16 PM 40.6950 -73.7160 209° Southwest 129 148 1,200 -652 Descending FlightAware ADS-B
Sat 07:46:42 PM 40.6810 -73.7270 211° Southwest 129 148 900 -652 Descending FlightAware ADS-B
Sat 07:47:02 PM 40.6710 -73.7350 211° Southwest 130 150 700 -563 Descending FlightAware ADS-B
Sat 07:47:14 PM 40.6650 -73.7390 207° Southwest 130 150 600 -563 Descending FlightAware ADS-B
Sat 07:47:34 PM 40.6550 -73.7470 211° Southwest 126 145 400 -750 Descending FlightAware ADS-B
Sat 07:47:46 PM 40.6490 -73.7520 212° Southwest 126 145 200 -1,000 Descending FlightAware ADS-B
Sat 07:48:11 PM 40.6370 -73.7610 210° Southwest 98 113 -480 Descending FlightAware ADS-B

Login

Don't have an account? Register now (free) for customized features, flight alerts, and more!